Becida, Minnesota
Current Conditions -  °F | °C
As of 3:13 AM on Monday 20 Oct 2014 (Local Time) from KBJI Reporting Station
Clear Clear  
Wind Chill: 33°   Ceiling: Unl
Heat Index: 38°   Visibility: 10mi
Dew Point: 36°   Wind: 6mph
Humidity: 93%   Direction: 300°WNW
Pressure: 29.93"   Gusts: NA
Location:  47.545°N, 95.1206°W
Report Text: KBJI 200813Z AUTO 30005KT 10SM CLR 03/02 A2993 RMK AO2 T00330023
Loading
Personal Weather Stations






























Interactive Weather Map
Tropical Storm Tracking
New forecast layout! Learn more

10-Day Weather Forecast

Advertisements
Track Severe Weather on mobile